sensor_id;sensor_type;location;lat;lon;timestamp;pressure;altitude;pressure_sealevel;temperature;humidity
7768;BME280;3928;42.626;23.382;2023-04-26T00:01:18;93241.91;;;13.44;87.91
7768;BME280;3928;42.626;23.382;2023-04-26T00:03:46;93255.34;;;13.51;87.97
7768;BME280;3928;42.626;23.382;2023-04-26T00:06:13;93253.63;;;13.52;88.53
7768;BME280;3928;42.626;23.382;2023-04-26T00:08:40;93219.88;;;13.37;87.91
7768;BME280;3928;42.626;23.382;2023-04-26T00:11:07;93219.75;;;13.40;87.99
7768;BME280;3928;42.626;23.382;2023-04-26T00:13:34;93218.47;;;13.49;88.10
7768;BME280;3928;42.626;23.382;2023-04-26T00:16:04;93232.84;;;13.55;87.43
7768;BME280;3928;42.626;23.382;2023-04-26T00:18:31;93227.28;;;13.45;87.25
7768;BME280;3928;42.626;23.382;2023-04-26T00:20:58;93219.81;;;13.39;87.58
7768;BME280;3928;42.626;23.382;2023-04-26T00:23:25;93224.53;;;13.29;87.74
7768;BME280;3928;42.626;23.382;2023-04-26T00:25:52;93219.97;;;13.15;88.36
7768;BME280;3928;42.626;23.382;2023-04-26T00:28:19;93222.03;;;13.07;88.80
7768;BME280;3928;42.626;23.382;2023-04-26T00:30:46;93218.84;;;13.02;89.38
7768;BME280;3928;42.626;23.382;2023-04-26T00:33:14;93205.25;;;12.99;89.39
7768;BME280;3928;42.626;23.382;2023-04-26T00:35:41;93210.91;;;13.07;89.06
7768;BME280;3928;42.626;23.382;2023-04-26T00:38:08;93203.94;;;13.09;88.70
7768;BME280;3928;42.626;23.382;2023-04-26T00:40:35;93202.41;;;13.05;88.36
7768;BME280;3928;42.626;23.382;2023-04-26T00:43:02;93205.75;;;13.07;88.67
7768;BME280;3928;42.626;23.382;2023-04-26T00:45:29;93205.75;;;13.07;88.22
7768;BME280;3928;42.626;23.382;2023-04-26T00:47:57;93206.16;;;12.98;88.10
7768;BME280;3928;42.626;23.382;2023-04-26T00:50:25;93187.53;;;12.32;89.22
7768;BME280;3928;42.626;23.382;2023-04-26T00:52:53;93202.09;;;12.31;89.23
7768;BME280;3928;42.626;23.382;2023-04-26T00:55:21;93211.84;;;12.45;89.03
7768;BME280;3928;42.626;23.382;2023-04-26T00:57:48;93206.44;;;12.51;88.75
7768;BME280;3928;42.626;23.382;2023-04-26T01:00:15;93212.72;;;12.64;88.60
7768;BME280;3928;42.626;23.382;2023-04-26T01:02:42;93200.63;;;12.66;88.37
7768;BME280;3928;42.626;23.382;2023-04-26T01:05:09;93207.06;;;12.76;87.04
7768;BME280;3928;42.626;23.382;2023-04-26T01:07:38;93213.63;;;12.83;85.59
7768;BME280;3928;42.626;23.382;2023-04-26T01:10:06;93213.34;;;12.89;84.54
7768;BME280;3928;42.626;23.382;2023-04-26T01:12:34;93216.97;;;12.85;82.76
7768;BME280;3928;42.626;23.382;2023-04-26T01:15:01;93217.13;;;12.82;82.70
7768;BME280;3928;42.626;23.382;2023-04-26T01:17:29;93216.97;;;12.65;83.09
7768;BME280;3928;42.626;23.382;2023-04-26T01:19:56;93212.72;;;12.64;83.99
7768;BME280;3928;42.626;23.382;2023-04-26T01:22:23;93205.91;;;12.63;83.57
7768;BME280;3928;42.626;23.382;2023-04-26T01:24:54;93205.91;;;12.63;82.52
7768;BME280;3928;42.626;23.382;2023-04-26T01:27:22;93188.94;;;12.59;81.51
7768;BME280;3928;42.626;23.382;2023-04-26T01:29:49;93196.72;;;12.57;81.25
7768;BME280;3928;42.626;23.382;2023-04-26T01:32:16;93192.78;;;12.49;81.90
7768;BME280;3928;42.626;23.382;2023-04-26T01:34:43;93189.53;;;12.45;82.07
7768;BME280;3928;42.626;23.382;2023-04-26T01:37:10;93180.28;;;12.19;82.37
7768;BME280;3928;42.626;23.382;2023-04-26T01:39:36;93206.41;;;12.10;83.86
7768;BME280;3928;42.626;23.382;2023-04-26T01:42:05;93205.09;;;12.00;83.14
7768;BME280;3928;42.626;23.382;2023-04-26T01:44:32;93211.09;;;11.77;82.22
7768;BME280;3928;42.626;23.382;2023-04-26T01:46:59;93203.56;;;11.73;82.74
7768;BME280;3928;42.626;23.382;2023-04-26T01:49:26;93216.50;;;11.69;81.58
7768;BME280;3928;42.626;23.382;2023-04-26T01:51:53;93214.41;;;11.81;82.69
7768;BME280;3928;42.626;23.382;2023-04-26T01:54:20;93208.19;;;11.86;82.86
7768;BME280;3928;42.626;23.382;2023-04-26T01:56:47;93211.25;;;11.96;82.71
7768;BME280;3928;42.626;23.382;2023-04-26T01:59:15;93208.13;;;12.10;82.58
7768;BME280;3928;42.626;23.382;2023-04-26T02:01:42;93188.47;;;12.09;82.31
7768;BME280;3928;42.626;23.382;2023-04-26T02:04:09;93192.78;;;12.28;82.06
7768;BME280;3928;42.626;23.382;2023-04-26T02:06:36;93170.00;;;12.19;81.37
7768;BME280;3928;42.626;23.382;2023-04-26T02:09:03;93201.72;;;12.20;81.12
7768;BME280;3928;42.626;23.382;2023-04-26T02:11:30;93195.28;;;11.88;82.55
7768;BME280;3928;42.626;23.382;2023-04-26T02:13:57;93184.56;;;11.77;83.62
7768;BME280;3928;42.626;23.382;2023-04-26T02:16:25;93166.97;;;11.44;83.41
7768;BME280;3928;42.626;23.382;2023-04-26T02:18:52;93168.28;;;11.32;83.07
7768;BME280;3928;42.626;23.382;2023-04-26T02:21:20;93189.75;;;11.53;83.18
7768;BME280;3928;42.626;23.382;2023-04-26T02:23:47;93180.91;;;11.60;82.70
7768;BME280;3928;42.626;23.382;2023-04-26T02:26:15;93194.47;;;11.64;83.41
7768;BME280;3928;42.626;23.382;2023-04-26T02:28:42;93199.41;;;11.47;83.49
7768;BME280;3928;42.626;23.382;2023-04-26T02:31:09;93193.13;;;11.32;83.72
7768;BME280;3928;42.626;23.382;2023-04-26T02:33:37;93202.09;;;11.43;83.60
7768;BME280;3928;42.626;23.382;2023-04-26T02:36:04;93203.69;;;11.46;83.68
7768;BME280;3928;42.626;23.382;2023-04-26T02:38:33;93208.75;;;11.49;83.53
7768;BME280;3928;42.626;23.382;2023-04-26T02:41:02;93192.44;;;11.50;82.67
7768;BME280;3928;42.626;23.382;2023-04-26T02:43:29;93184.59;;;11.53;82.62
7768;BME280;3928;42.626;23.382;2023-04-26T02:45:56;93190.03;;;11.67;83.04
7768;BME280;3928;42.626;23.382;2023-04-26T02:48:25;93180.44;;;11.73;82.60
7768;BME280;3928;42.626;23.382;2023-04-26T02:50:53;93169.25;;;11.74;80.92
7768;BME280;3928;42.626;23.382;2023-04-26T02:53:21;93172.59;;;11.76;80.92
7768;BME280;3928;42.626;23.382;2023-04-26T02:55:48;93173.50;;;11.75;81.46
7768;BME280;3928;42.626;23.382;2023-04-26T02:58:15;93151.63;;;11.64;81.88
7768;BME280;3928;42.626;23.382;2023-04-26T03:00:45;93175.25;;;11.74;82.57
7768;BME280;3928;42.626;23.382;2023-04-26T03:03:12;93176.28;;;11.68;82.77
7768;BME280;3928;42.626;23.382;2023-04-26T03:05:39;93175.78;;;11.60;82.52
7768;BME280;3928;42.626;23.382;2023-04-26T03:08:08;93178.75;;;11.50;83.17
7768;BME280;3928;42.626;23.382;2023-04-26T03:10:35;93168.97;;;11.36;83.46
7768;BME280;3928;42.626;23.382;2023-04-26T03:13:03;93163.53;;;11.22;84.85
7768;BME280;3928;42.626;23.382;2023-04-26T03:15:30;93158.72;;;11.12;85.07
7768;BME280;3928;42.626;23.382;2023-04-26T03:17:57;93160.44;;;11.13;85.29
7768;BME280;3928;42.626;23.382;2023-04-26T03:20:23;93137.16;;;10.95;84.82
7768;BME280;3928;42.626;23.382;2023-04-26T03:22:50;93161.03;;;11.20;85.32
7768;BME280;3928;42.626;23.382;2023-04-26T03:25:18;93168.56;;;11.25;85.29
7768;BME280;3928;42.626;23.382;2023-04-26T03:27:46;93170.00;;;11.32;85.06
7768;BME280;3928;42.626;23.382;2023-04-26T03:30:14;93186.25;;;11.32;85.09
7768;BME280;3928;42.626;23.382;2023-04-26T03:32:41;93176.09;;;11.29;85.39
7768;BME280;3928;42.626;23.382;2023-04-26T03:35:08;93170.59;;;11.17;85.58
7768;BME280;3928;42.626;23.382;2023-04-26T03:37:35;93181.56;;;11.20;86.03
7768;BME280;3928;42.626;23.382;2023-04-26T03:40:05;93168.41;;;11.06;86.43
7768;BME280;3928;42.626;23.382;2023-04-26T03:42:34;93180.84;;;11.17;86.51
7768;BME280;3928;42.626;23.382;2023-04-26T03:45:01;93174.03;;;11.16;86.99
7768;BME280;3928;42.626;23.382;2023-04-26T03:47:28;93185.75;;;11.23;86.89
7768;BME280;3928;42.626;23.382;2023-04-26T03:49:55;93186.19;;;11.34;86.80
7768;BME280;3928;42.626;23.382;2023-04-26T03:52:22;93178.56;;;11.09;87.80
7768;BME280;3928;42.626;23.382;2023-04-26T03:54:48;93181.63;;;11.19;87.74
7768;BME280;3928;42.626;23.382;2023-04-26T03:57:15;93182.06;;;11.30;87.59
7768;BME280;3928;42.626;23.382;2023-04-26T03:59:43;93180.06;;;11.38;87.75
7768;BME280;3928;42.626;23.382;2023-04-26T04:02:10;93176.34;;;11.45;89.02
7768;BME280;3928;42.626;23.382;2023-04-26T04:04:37;93181.69;;;11.62;88.90
7768;BME280;3928;42.626;23.382;2023-04-26T04:07:05;93182.81;;;11.77;88.44
7768;BME280;3928;42.626;23.382;2023-04-26T04:09:32;93200.28;;;11.91;88.08
7768;BME280;3928;42.626;23.382;2023-04-26T04:11:59;93198.28;;;11.99;88.36
7768;BME280;3928;42.626;23.382;2023-04-26T04:14:27;93207.09;;;12.14;88.09
7768;BME280;3928;42.626;23.382;2023-04-26T04:16:55;93209.25;;;12.24;87.54
7768;BME280;3928;42.626;23.382;2023-04-26T04:19:23;93202.63;;;12.39;87.28
7768;BME280;3928;42.626;23.382;2023-04-26T04:21:50;93192.94;;;12.46;87.41
7768;BME280;3928;42.626;23.382;2023-04-26T04:24:17;93196.59;;;12.81;99.09
7768;BME280;3928;42.626;23.382;2023-04-26T04:26:44;93183.19;;;13.12;99.44
7768;BME280;3928;42.626;23.382;2023-04-26T04:29:11;93188.53;;;13.46;98.34
7768;BME280;3928;42.626;23.382;2023-04-26T04:31:39;93202.81;;;13.72;92.03
7768;BME280;3928;42.626;23.382;2023-04-26T04:34:08;93205.38;;;13.91;87.97
7768;BME280;3928;42.626;23.382;2023-04-26T04:36:35;93211.44;;;14.26;89.27
7768;BME280;3928;42.626;23.382;2023-04-26T04:39:03;93201.19;;;14.42;86.04
7768;BME280;3928;42.626;23.382;2023-04-26T04:41:30;93220.00;;;14.63;84.77
7768;BME280;3928;42.626;23.382;2023-04-26T04:43:58;93223.25;;;14.84;81.57
7768;BME280;3928;42.626;23.382;2023-04-26T04:46:26;93222.63;;;14.96;79.95
7768;BME280;3928;42.626;23.382;2023-04-26T04:48:52;93217.91;;;15.04;77.19
7768;BME280;3928;42.626;23.382;2023-04-26T04:51:21;93217.00;;;15.05;76.50
7768;BME280;3928;42.626;23.382;2023-04-26T04:53:47;93214.41;;;15.05;75.83
7768;BME280;3928;42.626;23.382;2023-04-26T04:56:15;93211.13;;;15.02;74.75
7768;BME280;3928;42.626;23.382;2023-04-26T04:58:42;93218.81;;;15.03;74.78
7768;BME280;3928;42.626;23.382;2023-04-26T05:01:09;93207.34;;;14.91;75.07
7768;BME280;3928;42.626;23.382;2023-04-26T05:03:36;93222.31;;;15.02;75.00
7768;BME280;3928;42.626;23.382;2023-04-26T05:06:04;93223.84;;;15.06;76.91
7768;BME280;3928;42.626;23.382;2023-04-26T05:08:32;93206.75;;;14.86;75.12
7768;BME280;3928;42.626;23.382;2023-04-26T05:10:59;93226.00;;;14.81;74.40
7768;BME280;3928;42.626;23.382;2023-04-26T05:13:27;93222.94;;;14.73;75.74
7768;BME280;3928;42.626;23.382;2023-04-26T05:15:54;93225.69;;;14.70;76.09
7768;BME280;3928;42.626;23.382;2023-04-26T05:18:22;93217.50;;;14.61;76.08
7768;BME280;3928;42.626;23.382;2023-04-26T05:20:49;93232.75;;;14.49;76.32
7768;BME280;3928;42.626;23.382;2023-04-26T05:23:16;93227.00;;;14.42;76.60
7768;BME280;3928;42.626;23.382;2023-04-26T05:25:44;93229.47;;;14.45;77.17
7768;BME280;3928;42.626;23.382;2023-04-26T05:28:11;93239.97;;;14.41;76.88
7768;BME280;3928;42.626;23.382;2023-04-26T05:30:39;93216.00;;;14.39;77.49
7768;BME280;3928;42.626;23.382;2023-04-26T05:33:05;93221.00;;;14.42;78.28
7768;BME280;3928;42.626;23.382;2023-04-26T05:35:32;93229.25;;;14.31;78.43
7768;BME280;3928;42.626;23.382;2023-04-26T05:38:00;93233.16;;;14.40;79.25
7768;BME280;3928;42.626;23.382;2023-04-26T05:40:28;93237.06;;;14.48;79.73
7768;BME280;3928;42.626;23.382;2023-04-26T05:42:57;93240.13;;;14.56;79.45
7768;BME280;3928;42.626;23.382;2023-04-26T05:45:25;93243.78;;;14.70;79.67
7768;BME280;3928;42.626;23.382;2023-04-26T05:47:52;93210.56;;;14.62;79.44
7768;BME280;3928;42.626;23.382;2023-04-26T05:50:20;93207.00;;;14.65;78.90
7768;BME280;3928;42.626;23.382;2023-04-26T05:52:47;93237.91;;;14.83;78.22
7768;BME280;3928;42.626;23.382;2023-04-26T05:55:14;93239.97;;;14.94;77.83
7768;BME280;3928;42.626;23.382;2023-04-26T05:57:41;93232.34;;;14.91;78.92
7768;BME280;3928;42.626;23.382;2023-04-26T06:00:10;93195.31;;;14.75;78.83
7768;BME280;3928;42.626;23.382;2023-04-26T06:02:37;93228.88;;;14.92;78.53
7768;BME280;3928;42.626;23.382;2023-04-26T06:05:05;93243.34;;;15.12;77.93
7768;BME280;3928;42.626;23.382;2023-04-26T06:07:33;93205.47;;;14.95;76.52
7768;BME280;3928;42.626;23.382;2023-04-26T06:10:00;93239.75;;;15.32;76.71
7768;BME280;3928;42.626;23.382;2023-04-26T06:12:27;93238.44;;;15.40;75.88
7768;BME280;3928;42.626;23.382;2023-04-26T06:14:54;93248.81;;;15.56;75.07
7768;BME280;3928;42.626;23.382;2023-04-26T06:17:23;93235.56;;;15.62;73.44
7768;BME280;3928;42.626;23.382;2023-04-26T06:19:51;93228.84;;;15.75;72.52
7768;BME280;3928;42.626;23.382;2023-04-26T06:22:17;93236.53;;;15.93;70.98
7768;BME280;3928;42.626;23.382;2023-04-26T06:24:45;93239.53;;;16.01;69.53
7768;BME280;3928;42.626;23.382;2023-04-26T06:27:13;93240.09;;;16.22;70.84
7768;BME280;3928;42.626;23.382;2023-04-26T06:29:40;93237.00;;;16.31;68.39
7768;BME280;3928;42.626;23.382;2023-04-26T06:32:08;93233.47;;;16.48;67.78
7768;BME280;3928;42.626;23.382;2023-04-26T06:34:36;93228.59;;;16.57;64.60
7768;BME280;3928;42.626;23.382;2023-04-26T06:37:03;93229.28;;;16.61;63.48
7768;BME280;3928;42.626;23.382;2023-04-26T06:39:30;93226.69;;;16.45;64.37
7768;BME280;3928;42.626;23.382;2023-04-26T06:41:59;93212.31;;;16.25;64.59
7768;BME280;3928;42.626;23.382;2023-04-26T06:44:26;93237.84;;;16.31;62.68
7768;BME280;3928;42.626;23.382;2023-04-26T06:46:53;93248.88;;;16.19;61.27
7768;BME280;3928;42.626;23.382;2023-04-26T06:49:20;93230.22;;;15.16;58.95
7768;BME280;3928;42.626;23.382;2023-04-26T06:51:48;93174.41;;;14.79;60.06
7768;BME280;3928;42.626;23.382;2023-04-26T06:54:17;93187.31;;;14.97;59.97
7768;BME280;3928;42.626;23.382;2023-04-26T06:56:44;93251.34;;;15.07;58.90
7768;BME280;3928;42.626;23.382;2023-04-26T06:59:11;93246.16;;;14.55;61.02
7768;BME280;3928;42.626;23.382;2023-04-26T07:01:38;93192.69;;;14.23;63.34
7768;BME280;3928;42.626;23.382;2023-04-26T07:04:06;93254.19;;;14.68;63.88
7768;BME280;3928;42.626;23.382;2023-04-26T07:06:36;92997.63;;;13.15;63.53
7768;BME280;3928;42.626;23.382;2023-04-26T07:09:05;93222.34;;;14.50;65.39
7768;BME280;3928;42.626;23.382;2023-04-26T07:11:35;93252.41;;;14.86;66.58
7768;BME280;3928;42.626;23.382;2023-04-26T07:14:02;93257.88;;;14.97;65.54
7768;BME280;3928;42.626;23.382;2023-04-26T07:16:30;93145.78;;;14.15;63.99
7768;BME280;3928;42.626;23.382;2023-04-26T07:18:57;93250.13;;;14.97;62.84
7768;BME280;3928;42.626;23.382;2023-04-26T07:21:24;93255.75;;;14.88;60.67
7768;BME280;3928;42.626;23.382;2023-04-26T07:23:54;93260.63;;;14.94;58.37
7768;BME280;3928;42.626;23.382;2023-04-26T07:26:23;93249.34;;;15.12;57.90
7768;BME280;3928;42.626;23.382;2023-04-26T07:28:50;93249.28;;;15.64;57.37
7768;BME280;3928;42.626;23.382;2023-04-26T07:31:17;93250.78;;;15.68;55.75
7768;BME280;3928;42.626;23.382;2023-04-26T07:33:44;93254.50;;;15.30;51.92
7768;BME280;3928;42.626;23.382;2023-04-26T07:36:11;93241.94;;;15.06;52.53
7768;BME280;3928;42.626;23.382;2023-04-26T07:38:39;93256.09;;;15.15;54.78
7768;BME280;3928;42.626;23.382;2023-04-26T07:41:06;93251.47;;;15.55;53.90
7768;BME280;3928;42.626;23.382;2023-04-26T07:43:34;93253.53;;;15.97;52.19
7768;BME280;3928;42.626;23.382;2023-04-26T07:46:01;93255.19;;;16.61;51.61
7768;BME280;3928;42.626;23.382;2023-04-26T07:48:29;93241.06;;;16.97;49.06
7768;BME280;3928;42.626;23.382;2023-04-26T07:51:04;93254.06;;;17.39;47.26
7768;BME280;3928;42.626;23.382;2023-04-26T07:53:32;93267.22;;;17.50;45.58
7768;BME280;3928;42.626;23.382;2023-04-26T07:55:59;93269.28;;;17.01;45.16
7768;BME280;3928;42.626;23.382;2023-04-26T07:58:26;93279.91;;;16.82;46.82
7768;BME280;3928;42.626;23.382;2023-04-26T08:00:54;93275.25;;;16.26;47.42
7768;BME280;3928;42.626;23.382;2023-04-26T08:03:21;93280.78;;;15.88;48.26
7768;BME280;3928;42.626;23.382;2023-04-26T08:05:48;93257.22;;;15.44;50.86
7768;BME280;3928;42.626;23.382;2023-04-26T08:08:15;93277.00;;;15.94;51.23
7768;BME280;3928;42.626;23.382;2023-04-26T08:10:43;93270.84;;;16.12;49.61
7768;BME280;3928;42.626;23.382;2023-04-26T08:13:10;93275.34;;;16.24;49.54
7768;BME280;3928;42.626;23.382;2023-04-26T08:15:37;93244.91;;;16.44;47.76
7768;BME280;3928;42.626;23.382;2023-04-26T08:18:05;93277.41;;;16.33;47.66
7768;BME280;3928;42.626;23.382;2023-04-26T08:20:32;93191.28;;;15.84;46.30
7768;BME280;3928;42.626;23.382;2023-04-26T08:22:59;93274.16;;;15.83;47.55
7768;BME280;3928;42.626;23.382;2023-04-26T08:25:26;93264.56;;;15.85;48.42
7768;BME280;3928;42.626;23.382;2023-04-26T08:27:53;93265.56;;;15.98;50.06
7768;BME280;3928;42.626;23.382;2023-04-26T08:30:20;93271.75;;;15.95;49.03
7768;BME280;3928;42.626;23.382;2023-04-26T08:32:48;93258.19;;;15.74;49.85
7768;BME280;3928;42.626;23.382;2023-04-26T08:35:16;93254.53;;;15.63;50.41
7768;BME280;3928;42.626;23.382;2023-04-26T08:37:43;93273.41;;;15.81;48.73
7768;BME280;3928;42.626;23.382;2023-04-26T08:40:11;93273.78;;;15.73;48.98
7768;BME280;3928;42.626;23.382;2023-04-26T08:42:39;93269.06;;;15.65;49.51
7768;BME280;3928;42.626;23.382;2023-04-26T08:45:09;93279.16;;;15.53;49.69
7768;BME280;3928;42.626;23.382;2023-04-26T08:47:39;93279.78;;;15.07;50.99
7768;BME280;3928;42.626;23.382;2023-04-26T08:50:10;93259.41;;;15.01;52.20
7768;BME280;3928;42.626;23.382;2023-04-26T08:52:41;93269.53;;;15.39;52.44
7768;BME280;3928;42.626;23.382;2023-04-26T08:55:09;93280.16;;;15.67;52.12
7768;BME280;3928;42.626;23.382;2023-04-26T08:57:37;93269.41;;;15.75;51.43
7768;BME280;3928;42.626;23.382;2023-04-26T09:00:06;93265.63;;;15.65;50.67
7768;BME280;3928;42.626;23.382;2023-04-26T09:02:37;93266.88;;;15.73;50.38
7768;BME280;3928;42.626;23.382;2023-04-26T09:05:06;93269.91;;;15.82;49.36
7768;BME280;3928;42.626;23.382;2023-04-26T09:07:36;93280.78;;;16.04;48.52
7768;BME280;3928;42.626;23.382;2023-04-26T09:10:08;93279.75;;;16.06;49.01
7768;BME280;3928;42.626;23.382;2023-04-26T09:12:36;93275.16;;;15.80;49.07
7768;BME280;3928;42.626;23.382;2023-04-26T09:15:03;93290.56;;;15.66;49.73
7768;BME280;3928;42.626;23.382;2023-04-26T09:17:32;93285.59;;;15.28;49.99
7768;BME280;3928;42.626;23.382;2023-04-26T09:20:17;93297.66;;;15.45;50.08
7768;BME280;3928;42.626;23.382;2023-04-26T09:22:45;93292.41;;;15.64;49.51
7768;BME280;3928;42.626;23.382;2023-04-26T09:25:17;93295.06;;;15.62;49.55
7768;BME280;3928;42.626;23.382;2023-04-26T09:27:44;93284.25;;;15.54;50.11
7768;BME280;3928;42.626;23.382;2023-04-26T09:30:13;93298.63;;;15.60;49.47
7768;BME280;3928;42.626;23.382;2023-04-26T09:32:46;93291.63;;;15.62;49.00
7768;BME280;3928;42.626;23.382;2023-04-26T09:35:29;93287.41;;;15.43;49.34
7768;BME280;3928;42.626;23.382;2023-04-26T09:37:58;93290.81;;;15.44;51.18
7768;BME280;3928;42.626;23.382;2023-04-26T09:40:28;93286.66;;;15.74;50.90
7768;BME280;3928;42.626;23.382;2023-04-26T09:42:57;93285.75;;;15.75;49.64
7768;BME280;3928;42.626;23.382;2023-04-26T09:45:24;93273.66;;;15.76;50.50
7768;BME280;3928;42.626;23.382;2023-04-26T09:47:51;93278.44;;;15.99;49.21
7768;BME280;3928;42.626;23.382;2023-04-26T09:50:29;93281.44;;;15.92;48.11
7768;BME280;3928;42.626;23.382;2023-04-26T09:52:56;93287.97;;;15.99;46.88
7768;BME280;3928;42.626;23.382;2023-04-26T09:55:29;93275.28;;;15.61;47.88
7768;BME280;3928;42.626;23.382;2023-04-26T09:57:56;93288.09;;;15.30;49.74
7768;BME280;3928;42.626;23.382;2023-04-26T10:00:25;93266.22;;;15.70;48.76
7768;BME280;3928;42.626;23.382;2023-04-26T10:02:53;93274.84;;;16.02;47.45
7768;BME280;3928;42.626;23.382;2023-04-26T10:05:21;93283.03;;;16.26;47.23
7768;BME280;3928;42.626;23.382;2023-04-26T10:07:49;93282.09;;;16.43;47.62
7768;BME280;3928;42.626;23.382;2023-04-26T10:10:17;93274.34;;;16.88;46.77
7768;BME280;3928;42.626;23.382;2023-04-26T10:12:47;93273.72;;;17.29;45.59
7768;BME280;3928;42.626;23.382;2023-04-26T10:15:14;93245.66;;;17.50;44.22
7768;BME280;3928;42.626;23.382;2023-04-26T10:17:41;93265.75;;;17.61;43.28
7768;BME280;3928;42.626;23.382;2023-04-26T10:20:11;93260.97;;;17.69;43.43
7768;BME280;3928;42.626;23.382;2023-04-26T10:22:43;93242.59;;;17.86;42.65
7768;BME280;3928;42.626;23.382;2023-04-26T10:25:12;93245.78;;;17.91;40.93
7768;BME280;3928;42.626;23.382;2023-04-26T10:27:51;93256.34;;;17.88;41.67
7768;BME280;3928;42.626;23.382;2023-04-26T10:30:21;93252.91;;;18.02;41.61
7768;BME280;3928;42.626;23.382;2023-04-26T10:33:15;93250.28;;;18.16;40.97
7768;BME280;3928;42.626;23.382;2023-04-26T10:36:06;93261.31;;;18.05;40.61
7768;BME280;3928;42.626;23.382;2023-04-26T10:38:34;93251.88;;;18.04;40.63
7768;BME280;3928;42.626;23.382;2023-04-26T10:44:37;93262.53;;;16.99;41.63
7768;BME280;3928;42.626;23.382;2023-04-26T10:47:05;93267.31;;;17.20;41.99
7768;BME280;3928;42.626;23.382;2023-04-26T10:49:43;93251.47;;;17.39;42.57
7768;BME280;3928;42.626;23.382;2023-04-26T10:52:12;93263.84;;;17.64;40.59
7768;BME280;3928;42.626;23.382;2023-04-26T10:54:51;93260.97;;;17.83;40.94
7768;BME280;3928;42.626;23.382;2023-04-26T10:57:19;93260.41;;;17.92;40.69
7768;BME280;3928;42.626;23.382;2023-04-26T11:00:15;93257.44;;;17.98;40.23
7768;BME280;3928;42.626;23.382;2023-04-26T11:02:52;93260.78;;;17.72;40.03
7768;BME280;3928;42.626;23.382;2023-04-26T11:05:36;93252.53;;;17.94;39.45
7768;BME280;3928;42.626;23.382;2023-04-26T11:08:04;93230.38;;;17.74;38.43
7768;BME280;3928;42.626;23.382;2023-04-26T11:10:35;93259.47;;;17.93;38.96
7768;BME280;3928;42.626;23.382;2023-04-26T11:13:03;93256.59;;;17.41;39.51
7768;BME280;3928;42.626;23.382;2023-04-26T11:15:34;93264.53;;;17.52;39.58
7768;BME280;3928;42.626;23.382;2023-04-26T11:18:02;93248.75;;;17.71;39.20
7768;BME280;3928;42.626;23.382;2023-04-26T11:20:31;93251.53;;;17.82;38.44
7768;BME280;3928;42.626;23.382;2023-04-26T11:22:58;93257.69;;;17.51;39.29
7768;BME280;3928;42.626;23.382;2023-04-26T11:25:26;93248.78;;;17.27;38.68
7768;BME280;3928;42.626;23.382;2023-04-26T11:27:58;93263.78;;;17.07;39.62
7768;BME280;3928;42.626;23.382;2023-04-26T11:30:27;93255.19;;;17.21;39.85
7768;BME280;3928;42.626;23.382;2023-04-26T11:32:56;93255.81;;;17.24;39.00
7768;BME280;3928;42.626;23.382;2023-04-26T11:35:23;93261.00;;;17.24;39.40
7768;BME280;3928;42.626;23.382;2023-04-26T11:37:50;93255.56;;;17.43;38.95
7768;BME280;3928;42.626;23.382;2023-04-26T11:40:19;93260.47;;;17.62;38.83
7768;BME280;3928;42.626;23.382;2023-04-26T11:42:46;93258.81;;;17.61;38.62
7768;BME280;3928;42.626;23.382;2023-04-26T11:45:16;93232.50;;;17.39;37.63
7768;BME280;3928;42.626;23.382;2023-04-26T11:47:44;93258.38;;;17.83;38.60
7768;BME280;3928;42.626;23.382;2023-04-26T11:50:14;93251.31;;;18.14;37.47
7768;BME280;3928;42.626;23.382;2023-04-26T11:52:41;93181.16;;;17.87;37.10
7768;BME280;3928;42.626;23.382;2023-04-26T11:55:08;93204.19;;;18.05;37.14
7768;BME280;3928;42.626;23.382;2023-04-26T11:57:35;93240.91;;;18.14;35.85
7768;BME280;3928;42.626;23.382;2023-04-26T12:00:09;93251.56;;;18.09;35.73
7768;BME280;3928;42.626;23.382;2023-04-26T12:02:39;93255.72;;;18.26;36.42
7768;BME280;3928;42.626;23.382;2023-04-26T12:05:07;93242.00;;;18.09;37.11
7768;BME280;3928;42.626;23.382;2023-04-26T12:07:37;93246.94;;;18.41;37.12
7768;BME280;3928;42.626;23.382;2023-04-26T12:10:14;93243.53;;;18.40;36.13
7768;BME280;3928;42.626;23.382;2023-04-26T12:12:46;93244.59;;;18.51;36.08
7768;BME280;3928;42.626;23.382;2023-04-26T12:15:14;93243.38;;;18.29;35.56
7768;BME280;3928;42.626;23.382;2023-04-26T12:17:51;93237.69;;;18.37;35.87
7768;BME280;3928;42.626;23.382;2023-04-26T12:20:24;93243.78;;;18.50;35.94
7768;BME280;3928;42.626;23.382;2023-04-26T12:23:03;93234.47;;;18.60;35.97
7768;BME280;3928;42.626;23.382;2023-04-26T12:25:32;93243.34;;;18.70;37.03
7768;BME280;3928;42.626;23.382;2023-04-26T12:28:01;93236.91;;;18.76;35.92
7768;BME280;3928;42.626;23.382;2023-04-26T12:30:28;93231.47;;;18.39;36.41
7768;BME280;3928;42.626;23.382;2023-04-26T12:32:56;93244.00;;;18.33;36.68
7768;BME280;3928;42.626;23.382;2023-04-26T12:35:23;93232.25;;;18.27;36.55
7768;BME280;3928;42.626;23.382;2023-04-26T12:37:51;93241.84;;;17.98;37.36
7768;BME280;3928;42.626;23.382;2023-04-26T12:40:19;93137.00;;;17.45;37.11
7768;BME280;3928;42.626;23.382;2023-04-26T12:42:47;93203.31;;;17.92;37.01
7768;BME280;3928;42.626;23.382;2023-04-26T12:45:15;93211.41;;;18.15;36.11
7768;BME280;3928;42.626;23.382;2023-04-26T12:47:42;93231.47;;;18.39;36.27
7768;BME280;3928;42.626;23.382;2023-04-26T12:50:10;93247.88;;;18.40;35.68
7768;BME280;3928;42.626;23.382;2023-04-26T12:52:38;93236.94;;;18.08;35.99
7768;BME280;3928;42.626;23.382;2023-04-26T12:55:06;93216.16;;;18.08;36.17
7768;BME280;3928;42.626;23.382;2023-04-26T12:57:36;93237.81;;;18.21;35.99
7768;BME280;3928;42.626;23.382;2023-04-26T13:00:05;93231.84;;;18.33;36.43
7768;BME280;3928;42.626;23.382;2023-04-26T13:02:34;93195.06;;;17.86;37.21
7768;BME280;3928;42.626;23.382;2023-04-26T13:05:01;93241.38;;;18.06;37.66
7768;BME280;3928;42.626;23.382;2023-04-26T13:07:31;93240.72;;;18.17;36.89
7768;BME280;3928;42.626;23.382;2023-04-26T13:09:58;93246.13;;;17.85;37.10
7768;BME280;3928;42.626;23.382;2023-04-26T13:12:25;93235.38;;;17.48;37.39
7768;BME280;3928;42.626;23.382;2023-04-26T13:14:53;93260.22;;;17.67;36.69
7768;BME280;3928;42.626;23.382;2023-04-26T13:17:22;93242.78;;;17.40;37.58
7768;BME280;3928;42.626;23.382;2023-04-26T13:19:50;93132.50;;;16.62;38.57